Time;durP1;ratioP1;P1;durP2;ratioP2;P2;SDS_P1;SDS_P2;PMS_P1;PMS_P2;Temp;Humidity;BMP_temperature;BMP_pressure;BME280_temperature;BME280_humidity;BME280_pressure;Samples;Min_cycle;Max_cycle;Signal;HPM_P1;HPM_P2
2021/01/23 00:00:11;;;;;;;2.07;0.70;;;;;;;3.14;100.00;97042.09;3929913;74;386651;-82
2021/01/23 00:05:32;;;;;;;0.80;0.40;;;;;;;2.98;100.00;97036.40;3943265;74;383580;-82
2021/01/23 00:10:53;;;;;;;0.80;0.40;;;;;;;3.01;100.00;97038.30;3941246;74;383583;-82
2021/01/23 00:16:14;;;;;;;0.80;0.50;;;;;;;2.81;100.00;97037.29;3941087;74;383576;-81
2021/01/23 00:21:36;;;;;;;0.80;0.43;;;;;;;2.74;100.00;97037.34;3930750;74;383778;-81
2021/01/23 00:26:57;;;;;;;0.80;0.40;;;;;;;2.70;100.00;97040.64;3829346;76;383608;-81
2021/01/23 00:32:19;;;;;;;1.30;0.50;;;;;;;2.76;100.00;97033.62;3928365;75;390139;-81
2021/01/23 00:37:41;;;;;;;0.90;0.80;;;;;;;2.52;100.00;97040.56;3829251;76;383789;-80
2021/01/23 00:43:02;;;;;;;0.80;0.50;;;;;;;2.58;100.00;97039.77;3928692;75;383584;-80
2021/01/23 00:48:23;;;;;;;0.80;0.40;;;;;;;2.53;100.00;97040.75;3829553;76;383949;-81
2021/01/23 00:53:45;;;;;;;0.80;0.50;;;;;;;2.46;100.00;97041.55;3928690;75;383572;-82
2021/01/23 00:59:07;;;;;;;1.20;0.90;;;;;;;2.37;100.00;97043.92;3826594;76;387727;-81
2021/01/23 01:04:28;;;;;;;0.80;0.40;;;;;;;2.36;100.00;97062.72;3948193;74;383545;-81
2021/01/23 01:09:50;;;;;;;0.80;0.40;;;;;;;2.23;100.00;97077.11;3949566;74;383575;-81
2021/01/23 01:15:12;;;;;;;0.80;0.40;;;;;;;2.14;100.00;97088.19;3816771;77;383863;-81
2021/01/23 01:20:33;;;;;;;0.80;0.40;;;;;;;2.12;100.00;97090.52;3947801;74;383549;-81
2021/01/23 01:25:54;;;;;;;0.80;0.50;;;;;;;2.17;100.00;97096.91;3949565;74;383809;-81
2021/01/23 01:31:17;;;;;;;0.80;0.40;;;;;;;2.08;100.00;97100.61;3816985;77;383544;-82
2021/01/23 01:36:38;;;;;;;0.80;0.40;;;;;;;1.92;100.00;97107.04;3948254;74;383773;-81
2021/01/23 01:42:04;;;;;;;0.80;0.40;;;;;;;1.93;100.00;97114.02;3949876;74;383584;-81
2021/01/23 01:47:25;;;;;;;0.80;0.40;;;;;;;2.04;100.00;97119.60;3816956;77;383587;-81
2021/01/23 01:52:47;;;;;;;0.80;0.40;;;;;;;1.97;100.00;97132.39;3947976;74;383576;-81
2021/01/23 01:58:08;;;;;;;0.80;0.40;;;;;;;2.03;100.00;97148.44;3950119;74;383773;-81
2021/01/23 02:03:42;;;;;;;0.80;0.40;;;;;;;1.96;100.00;97153.31;3797208;76;383812;-81
2021/01/23 02:09:07;;;;;;;0.90;0.67;;;;;;;1.86;100.00;97160.88;3912739;75;391911;-81
2021/01/23 02:14:34;;;;;;;0.80;0.40;;;;;;;1.69;100.00;97160.89;3913205;75;383534;-81
2021/01/23 02:20:26;;;;;;;0.80;0.40;;;;;;;1.52;100.00;97164.38;3914198;75;383542;-81
2021/01/23 02:26:11;;;;;;;1.17;1.00;;;;;;;1.49;100.00;97188.16;3913164;74;383790;-81
2021/01/23 02:31:36;;;;;;;0.80;0.40;;;;;;;1.41;100.00;97207.51;3913411;74;383832;-81
2021/01/23 02:36:59;;;;;;;0.80;0.40;;;;;;;1.30;100.00;97211.53;3915319;75;383778;-81
2021/01/23 02:42:20;;;;;;;1.57;0.50;;;;;;;1.32;100.00;97220.64;3913015;75;383976;-82
2021/01/23 02:47:41;;;;;;;0.80;0.50;;;;;;;1.26;100.00;97214.83;3913608;75;383829;-82
2021/01/23 02:53:09;;;;;;;0.80;0.40;;;;;;;1.21;100.00;97224.66;3913354;75;383596;-82
2021/01/23 02:58:32;;;;;;;0.80;0.40;;;;;;;1.13;100.00;97227.15;3916323;73;383782;-82
2021/01/23 03:03:58;;;;;;;0.80;0.40;;;;;;;1.06;100.00;97219.60;3934823;74;383568;-82
2021/01/23 03:09:22;;;;;;;0.80;0.40;;;;;;;1.11;100.00;97226.78;3935737;73;383576;-82
2021/01/23 03:14:45;;;;;;;0.90;0.60;;;;;;;1.20;100.00;97235.88;3935201;74;383873;-82
2021/01/23 03:20:07;;;;;;;0.80;0.57;;;;;;;1.16;100.00;97233.76;3935704;74;383577;-82
2021/01/23 03:25:29;;;;;;;0.80;0.50;;;;;;;1.26;100.00;97244.61;3935723;74;383541;-82
2021/01/23 03:30:50;;;;;;;0.80;0.50;;;;;;;1.25;100.00;97249.06;3935902;74;383584;-81
2021/01/23 03:36:11;;;;;;;0.80;0.40;;;;;;;1.32;100.00;97268.04;3935356;73;383789;-81
2021/01/23 03:41:33;;;;;;;0.80;0.50;;;;;;;1.37;100.00;97265.73;3935698;74;383959;-81
2021/01/23 03:46:55;;;;;;;2.77;0.60;;;;;;;1.37;100.00;97278.48;3934653;74;389917;-80
2021/01/23 03:52:16;;;;;;;2.40;1.53;;;;;;;1.44;100.00;97283.36;3934406;73;394987;-80
2021/01/23 03:57:37;;;;;;;0.80;0.50;;;;;;;1.42;100.00;97294.36;3935704;74;383806;-80
2021/01/23 04:02:58;;;;;;;0.80;0.40;;;;;;;1.53;100.00;97283.77;3922919;74;383841;-79
2021/01/23 04:08:19;;;;;;;0.80;0.40;;;;;;;1.49;100.00;97288.39;3913526;74;383592;-80
2021/01/23 04:13:41;;;;;;;0.80;0.40;;;;;;;1.54;100.00;97284.53;3913236;75;383588;-80
2021/01/23 04:19:02;;;;;;;0.83;0.53;;;;;;;1.59;100.00;97278.92;3913232;75;383541;-80
2021/01/23 04:24:23;;;;;;;0.90;0.70;;;;;;;1.64;100.00;97290.77;3914541;74;391903;-80
2021/01/23 04:29:44;;;;;;;1.13;1.03;;;;;;;1.63;100.00;97300.61;3911885;75;396040;-79
2021/01/23 04:35:09;;;;;;;0.80;0.40;;;;;;;1.60;100.00;97290.56;3913341;74;383793;-79
2021/01/23 04:40:31;;;;;;;1.10;0.90;;;;;;;1.68;100.00;97305.08;3912081;74;393990;-80
2021/01/23 04:45:53;;;;;;;3.43;0.60;;;;;;;1.72;100.00;97319.98;3914271;74;389888;-79
2021/01/23 04:51:14;;;;;;;0.80;0.40;;;;;;;1.71;100.00;97315.72;3913487;75;383585;-79
2021/01/23 04:56:35;;;;;;;0.83;0.53;;;;;;;1.72;100.00;97326.77;3913175;75;383797;-80
2021/01/23 05:02:23;;;;;;;0.80;0.40;;;;;;;1.76;100.00;97334.34;3913390;74;383588;-80
2021/01/23 05:07:44;;;;;;;0.90;0.77;;;;;;;1.76;100.00;97354.07;3810367;75;391891;-80
2021/01/23 05:13:15;;;;;;;1.00;0.70;;;;;;;1.75;100.00;97357.17;3915203;74;383829;-79
2021/01/23 05:18:36;;;;;;;0.90;0.70;;;;;;;1.69;100.00;97345.92;3915207;74;383537;-79
2021/01/23 05:24:12;;;;;;;0.80;0.50;;;;;;;1.74;100.00;97348.84;3915197;74;383857;-80
2021/01/23 05:29:34;;;;;;;0.80;0.50;;;;;;;1.78;100.00;97349.05;3913242;74;383613;-80
2021/01/23 05:34:55;;;;;;;0.90;0.60;;;;;;;1.70;100.00;97342.63;3913447;75;383580;-79
2021/01/23 05:40:17;;;;;;;1.30;1.20;;;;;;;1.72;100.00;97339.75;3914757;74;391907;-79
2021/01/23 05:45:48;;;;;;;0.90;0.50;;;;;;;1.70;100.00;97338.00;3913340;75;383596;-79
2021/01/23 05:51:09;;;;;;;1.10;1.00;;;;;;;1.71;100.00;97349.59;3914824;74;383534;-79
2021/01/23 05:56:31;;;;;;;3.20;0.87;;;;;;;1.69;100.00;97348.64;3915186;74;383789;-80
2021/01/23 06:01:52;;;;;;;0.90;0.60;;;;;;;1.61;100.00;97350.38;3916841;74;383789;-79
2021/01/23 06:07:33;;;;;;;0.80;0.50;;;;;;;1.65;100.00;97366.05;3935462;74;383805;-79
2021/01/23 06:12:55;;;;;;;1.43;0.70;;;;;;;1.62;100.00;97376.28;3935021;73;391913;-80
2021/01/23 06:18:25;;;;;;;1.77;1.67;;;;;;;1.67;100.00;97398.96;3933928;73;396088;-80
2021/01/23 06:23:49;;;;;;;0.80;0.57;;;;;;;1.74;100.00;97390.86;3935267;74;383576;-79
2021/01/23 06:29:11;;;;;;;0.90;0.67;;;;;;;1.77;100.00;97403.66;3934679;74;391903;-79
2021/01/23 06:34:34;;;;;;;1.20;0.97;;;;;;;1.82;100.00;97397.84;3934841;73;389866;-81
2021/01/23 06:40:03;;;;;;;0.87;0.70;;;;;;;1.75;100.00;97405.96;3935507;74;383863;-80
2021/01/23 06:45:30;;;;;;;0.80;0.57;;;;;;;1.68;100.00;97409.41;3935465;74;383569;-80
2021/01/23 06:50:51;;;;;;;0.90;0.50;;;;;;;1.72;100.00;97399.38;3935163;74;383798;-80
2021/01/23 06:56:14;;;;;;;1.00;0.50;;;;;;;1.65;100.00;97397.20;3935027;73;388018;-80
2021/01/23 07:01:35;;;;;;;1.07;0.90;;;;;;;1.63;100.00;97404.94;3935156;73;383572;-80
2021/01/23 07:06:58;;;;;;;1.93;1.43;;;;;;;1.71;100.00;97404.59;3940461;74;392164;-80
2021/01/23 07:12:40;;;;;;;1.13;1.03;;;;;;;1.63;100.00;97403.58;3942276;74;392163;-80
2021/01/23 07:18:16;;;;;;;1.43;1.13;;;;;;;1.59;100.00;97419.06;3942085;74;396066;-81
2021/01/23 07:23:37;;;;;;;1.13;0.97;;;;;;;1.62;100.00;97420.98;3943068;74;383564;-80
2021/01/23 07:28:59;;;;;;;1.30;1.13;;;;;;;1.57;100.00;97420.02;3940830;74;383895;-80
2021/01/23 07:34:20;;;;;;;0.80;0.60;;;;;;;1.51;100.00;97424.25;3943327;74;383581;-80
2021/01/23 07:39:41;;;;;;;0.80;0.40;;;;;;;1.39;100.00;97434.64;3940973;74;383809;-79
2021/01/23 07:45:13;;;;;;;1.30;1.20;;;;;;;1.33;100.00;97437.52;3941016;74;387823;-80
2021/01/23 07:50:39;;;;;;;0.80;0.70;;;;;;;1.42;100.00;97438.72;3943240;74;383798;-80
2021/01/23 07:56:00;;;;;;;3.03;1.43;;;;;;;1.61;100.00;97439.20;3940249;74;396089;-80
2021/01/23 08:01:21;;;;;;;2.30;1.03;;;;;;;1.49;100.00;97446.11;3942276;74;394004;-79
2021/01/23 08:06:43;;;;;;;1.03;0.93;;;;;;;1.51;100.00;97449.98;3916215;74;392969;-79
2021/01/23 08:12:04;;;;;;;1.77;1.27;;;;;;;1.56;100.00;97453.68;3913903;75;396033;-80
2021/01/23 08:17:48;;;;;;;1.90;1.23;;;;;;;1.90;100.00;97453.64;3914111;74;391051;-81
2021/01/23 08:23:18;;;;;;;0.90;0.70;;;;;;;1.90;100.00;97455.00;3914601;75;385621;-80
2021/01/23 08:28:42;;;;;;;15.30;2.07;;;;;;;1.73;100.00;97459.77;3914032;75;391883;-80
2021/01/23 08:34:03;;;;;;;3.57;1.13;;;;;;;1.69;100.00;97444.08;3914441;74;395160;-80
2021/01/23 08:39:24;;;;;;;1.50;1.40;;;;;;;1.72;100.00;97446.02;3914595;75;385688;-80
2021/01/23 08:44:46;;;;;;;12.23;1.67;;;;;;;1.83;100.00;97442.77;3911590;75;396069;-79
2021/01/23 08:50:07;;;;;;;1.00;0.90;;;;;;;1.95;100.00;97442.41;3914005;75;392973;-79
2021/01/23 08:55:28;;;;;;;0.90;0.60;;;;;;;1.95;100.00;97447.84;3912973;75;383829;-79
2021/01/23 09:00:50;;;;;;;1.23;1.03;;;;;;;1.98;100.00;97449.20;3914885;75;383577;-79
2021/01/23 09:06:11;;;;;;;1.33;1.23;;;;;;;1.93;100.00;97441.45;3927118;74;383584;-80
2021/01/23 09:11:36;;;;;;;1.40;1.30;;;;;;;1.92;100.00;97445.31;3934496;74;392908;-80
2021/01/23 09:16:56;;;;;;;1.30;1.17;;;;;;;1.92;100.00;97447.27;3934331;74;393004;-79
2021/01/23 09:22:16;;;;;;;5.67;1.53;;;;;;;2.02;100.00;97439.75;3934306;73;391910;-79
2021/01/23 09:27:38;;;;;;;1.67;1.57;;;;;;;2.13;100.00;97435.11;3934662;74;383537;-80
2021/01/23 09:32:59;;;;;;;2.17;1.70;;;;;;;2.19;100.00;97428.94;3933782;74;396091;-79
2021/01/23 09:38:20;;;;;;;1.10;1.00;;;;;;;2.24;100.00;97434.57;3934478;74;393954;-80
2021/01/23 09:43:41;;;;;;;1.23;0.97;;;;;;;2.30;100.00;97435.73;3934574;73;391860;-80
2021/01/23 09:49:03;;;;;;;1.30;1.20;;;;;;;2.37;100.00;97437.30;3934642;74;391903;-79
2021/01/23 09:54:24;;;;;;;1.77;1.67;;;;;;;2.51;100.00;97424.33;3934005;73;396309;-79
2021/01/23 09:59:45;;;;;;;2.50;1.40;;;;;;;2.54;100.00;97421.62;3934210;74;396112;-79
2021/01/23 10:05:08;;;;;;;1.17;0.83;;;;;;;2.62;100.00;97417.75;3927006;74;393978;-79
2021/01/23 10:10:29;;;;;;;1.67;1.57;;;;;;;2.76;100.00;97421.81;3914163;74;396338;-79
2021/01/23 10:15:50;;;;;;;2.60;1.37;;;;;;;2.76;100.00;97415.02;3913855;75;396077;-79
2021/01/23 10:21:11;;;;;;;1.00;0.90;;;;;;;2.74;100.00;97409.23;3914749;75;392152;-78
2021/01/23 10:26:33;;;;;;;2.60;1.70;;;;;;;2.82;100.00;97409.42;3913702;75;396071;-78
2021/01/23 10:31:55;;;;;;;2.90;0.90;;;;;;;2.88;100.00;97401.63;3914344;74;391930;-79
2021/01/23 10:37:16;;;;;;;5.53;2.10;;;;;;;3.04;100.00;97395.21;3912301;75;394301;-78
2021/01/23 10:42:38;;;;;;;3.17;1.17;;;;;;;3.03;100.00;97384.95;3912169;74;390185;-77
2021/01/23 10:47:59;;;;;;;2.70;1.53;;;;;;;2.96;100.00;97385.52;3912144;75;393993;-78
2021/01/23 10:53:21;;;;;;;1.30;1.20;;;;;;;3.00;100.00;97385.72;3914026;75;391906;-78
2021/01/23 10:58:43;;;;;;;5.53;3.63;;;;;;;3.02;100.00;97392.89;3912076;74;396116;-78
2021/01/23 11:04:04;;;;;;;0.90;0.80;;;;;;;2.95;100.00;97382.64;3912700;74;383880;-79
2021/01/23 11:09:26;;;;;;;1.53;1.43;;;;;;;2.90;100.00;97379.73;3912405;75;395008;-78
2021/01/23 11:14:47;;;;;;;0.90;0.70;;;;;;;2.97;100.00;97377.58;3912804;75;387851;-79
2021/01/23 11:20:10;;;;;;;1.93;1.17;;;;;;;3.00;100.00;97365.34;3912169;75;394239;-79
2021/01/23 11:25:31;;;;;;;4.00;1.57;;;;;;;3.04;100.00;97359.34;3911566;75;396080;-79
2021/01/23 11:30:53;;;;;;;1.63;1.53;;;;;;;3.16;100.00;97348.04;3912417;74;387737;-79
2021/01/23 11:36:14;;;;;;;1.73;1.30;;;;;;;3.11;100.00;97354.48;3912063;75;391931;-80
2021/01/23 11:41:39;;;;;;;1.20;1.10;;;;;;;3.17;100.00;97355.03;3914444;75;391954;-79
2021/01/23 11:47:00;;;;;;;2.60;2.40;;;;;;;3.07;100.00;97350.98;3912075;74;396356;-78
2021/01/23 11:52:21;;;;;;;1.27;1.17;;;;;;;2.98;100.00;97348.69;3914304;74;383849;-78
2021/01/23 11:57:42;;;;;;;1.50;1.40;;;;;;;3.07;100.00;97355.06;3914117;74;392119;-79
2021/01/23 12:03:04;;;;;;;1.57;1.10;;;;;;;3.06;100.00;97342.08;3912016;75;393172;-79
2021/01/23 12:08:26;;;;;;;1.10;0.60;;;;;;;3.01;100.00;97328.88;3915551;74;383793;-78
2021/01/23 12:13:47;;;;;;;1.20;1.10;;;;;;;3.06;100.00;97320.91;3912347;74;385920;-79
2021/01/23 12:19:10;;;;;;;1.63;1.53;;;;;;;3.15;100.00;97305.73;3912404;75;391904;-78
2021/01/23 12:24:32;;;;;;;2.73;0.93;;;;;;;3.34;100.00;97294.42;3913819;75;394298;-78
2021/01/23 12:29:53;;;;;;;3.50;1.00;;;;;;;3.74;100.00;97290.53;3914540;75;389761;-78
2021/01/23 12:35:15;;;;;;;1.00;0.90;;;;;;;3.71;100.00;97272.88;3913017;75;385889;-79
2021/01/23 12:40:36;;;;;;;1.37;0.93;;;;;;;3.79;100.00;97269.70;3912734;74;387760;-78
2021/01/23 12:45:58;;;;;;;9.60;2.17;;;;;;;3.79;100.00;97260.19;3914573;74;391923;-78
2021/01/23 12:51:20;;;;;;;1.23;1.10;;;;;;;3.93;100.00;97248.45;3914408;75;393999;-78
2021/01/23 12:56:42;;;;;;;1.20;1.10;;;;;;;4.14;100.00;97242.25;3912518;75;387845;-78
2021/01/23 13:02:03;;;;;;;1.87;0.83;;;;;;;4.28;100.00;97232.61;3912138;75;393990;-79
2021/01/23 13:07:27;;;;;;;2.50;2.30;;;;;;;4.28;100.00;97233.96;3911869;74;396318;-78
2021/01/23 13:12:50;;;;;;;2.87;1.47;;;;;;;4.21;100.00;97230.70;3911989;74;394021;-78
2021/01/23 13:18:11;;;;;;;2.13;1.93;;;;;;;4.40;100.00;97219.87;3911790;75;396068;-77
2021/01/23 13:23:32;;;;;;;2.00;1.90;;;;;;;4.36;100.00;97214.43;3914163;74;391907;-78
2021/01/23 13:28:55;;;;;;;0.93;0.80;;;;;;;4.33;100.00;97217.98;3913251;74;383600;-78
2021/01/23 13:34:16;;;;;;;1.43;1.33;;;;;;;4.24;100.00;97213.59;3912230;75;394010;-79
2021/01/23 13:39:37;;;;;;;1.13;1.03;;;;;;;4.21;100.00;97210.30;3913128;75;383572;-78
2021/01/23 13:44:59;;;;;;;3.17;1.47;;;;;;;4.18;100.00;97208.41;3912703;75;385686;-78
2021/01/23 13:50:20;;;;;;;7.93;3.00;;;;;;;4.21;100.00;97206.22;3914100;74;394257;-79
2021/01/23 13:55:41;;;;;;;2.93;1.53;;;;;;;4.15;100.00;97198.91;3912508;75;396072;-78
2021/01/23 14:01:03;;;;;;;1.40;1.17;;;;;;;4.08;100.00;97201.10;3914056;75;394983;-78
2021/01/23 14:06:24;;;;;;;4.83;1.27;;;;;;;4.11;100.00;97201.67;3912323;74;394030;-79
2021/01/23 14:11:45;;;;;;;1.80;1.70;;;;;;;4.06;100.00;97208.88;3912237;75;396379;-78
2021/01/23 14:17:06;;;;;;;4.47;1.87;;;;;;;3.99;100.00;97214.98;3912746;74;383841;-79
2021/01/23 14:22:28;;;;;;;2.00;1.90;;;;;;;3.98;100.00;97207.40;3912408;75;386651;-78
2021/01/23 14:27:49;;;;;;;1.37;0.77;;;;;;;4.01;100.00;97202.52;3914514;74;391852;-78
2021/01/23 14:33:10;;;;;;;2.00;1.57;;;;;;;4.07;100.00;97200.91;3911855;75;394033;-78
2021/01/23 14:38:32;;;;;;;3.40;1.63;;;;;;;3.97;100.00;97194.20;3912004;74;396092;-79
2021/01/23 14:43:52;;;;;;;3.87;1.77;;;;;;;3.85;100.00;97191.96;3914062;75;395046;-78
2021/01/23 14:49:13;;;;;;;1.73;1.07;;;;;;;3.79;100.00;97196.29;3911797;75;396066;-79
2021/01/23 14:54:35;;;;;;;4.77;2.33;;;;;;;3.74;100.00;97197.30;3911699;74;396128;-78
2021/01/23 14:59:56;;;;;;;4.43;1.37;;;;;;;3.64;100.00;97191.34;3911608;75;396314;-78
2021/01/23 15:05:18;;;;;;;1.43;1.33;;;;;;;3.58;100.00;97191.59;3914467;75;388042;-79
2021/01/23 15:10:39;;;;;;;3.63;2.50;;;;;;;3.53;100.00;97190.06;3930808;74;393949;-78
2021/01/23 15:16:00;;;;;;;1.97;1.77;;;;;;;3.53;100.00;97192.02;3934358;73;394230;-79
2021/01/23 15:21:21;;;;;;;2.30;1.17;;;;;;;3.50;100.00;97193.59;3934198;74;396080;-78
2021/01/23 15:26:43;;;;;;;2.60;1.70;;;;;;;3.40;100.00;97190.92;3934145;74;396080;-79
2021/01/23 15:32:04;;;;;;;2.50;2.30;;;;;;;3.35;100.00;97193.48;3934092;74;396077;-79
2021/01/23 15:37:25;;;;;;;1.53;1.20;;;;;;;3.28;100.00;97196.84;3934178;73;396073;-77
2021/01/23 15:42:47;;;;;;;4.90;4.50;;;;;;;3.27;100.00;97192.57;3933929;73;396115;-77
2021/01/23 15:48:08;;;;;;;3.20;2.80;;;;;;;3.22;100.00;97201.91;3933704;74;396352;-78
2021/01/23 15:53:29;;;;;;;4.10;2.60;;;;;;;3.18;100.00;97208.53;3934196;74;396394;-78
2021/01/23 15:58:50;;;;;;;2.13;1.93;;;;;;;3.15;100.00;97201.95;3933722;74;396317;-77
2021/01/23 16:04:11;;;;;;;5.43;2.40;;;;;;;3.20;100.00;97198.81;3934062;73;396142;-78
2021/01/23 16:09:32;;;;;;;4.20;2.23;;;;;;;3.12;100.00;97197.11;3938942;74;396167;-78
2021/01/23 16:14:53;;;;;;;3.67;1.83;;;;;;;3.12;100.00;97188.39;3929525;74;396399;-78
2021/01/23 16:20:16;;;;;;;5.43;3.57;;;;;;;3.11;100.00;97184.72;3828239;76;396068;-78
2021/01/23 16:25:38;;;;;;;1.40;1.30;;;;;;;3.07;100.00;97182.00;3927813;75;392951;-77
2021/01/23 16:31:01;;;;;;;2.27;2.13;;;;;;;3.01;100.00;97170.00;3828308;76;395046;-78
2021/01/23 16:36:22;;;;;;;1.87;1.73;;;;;;;2.96;100.00;97159.56;3927464;75;396328;-78
2021/01/23 16:41:43;;;;;;;1.73;1.40;;;;;;;2.97;100.00;97161.12;3828605;76;389767;-78
2021/01/23 16:47:05;;;;;;;4.20;3.23;;;;;;;2.92;100.00;97159.39;3927736;75;393994;-77
2021/01/23 16:52:26;;;;;;;3.17;1.93;;;;;;;2.93;100.00;97158.99;3828026;76;394065;-77
2021/01/23 16:57:47;;;;;;;1.80;1.43;;;;;;;2.98;100.00;97157.23;3927683;75;396285;-77
2021/01/23 17:03:08;;;;;;;5.63;4.63;;;;;;;2.85;100.00;97141.79;3828175;76;396162;-77
2021/01/23 17:08:30;;;;;;;4.53;2.50;;;;;;;2.82;100.00;97136.56;3927766;74;396297;-77
2021/01/23 17:13:51;;;;;;;3.13;1.70;;;;;;;2.82;100.00;97130.35;3828224;76;396164;-77
2021/01/23 17:19:13;;;;;;;2.00;0.97;;;;;;;2.78;100.00;97131.73;3928602;75;385660;-77
2021/01/23 17:24:34;;;;;;;4.00;1.73;;;;;;;2.78;100.00;97121.47;3828262;76;396372;-77
2021/01/23 17:29:55;;;;;;;2.50;2.30;;;;;;;2.70;100.00;97118.00;3928074;75;394055;-77
2021/01/23 17:35:16;;;;;;;2.17;1.93;;;;;;;2.74;100.00;97120.13;3828427;76;392208;-77
2021/01/23 17:40:38;;;;;;;7.43;2.20;;;;;;;2.80;100.00;97110.97;3927966;75;394979;-77
2021/01/23 17:45:59;;;;;;;1.53;1.23;;;;;;;2.71;100.00;97104.63;3828263;76;394285;-77
2021/01/23 17:51:20;;;;;;;14.57;3.67;;;;;;;2.63;100.00;97082.75;3927865;75;396079;-77
2021/01/23 17:56:42;;;;;;;1.40;1.30;;;;;;;2.54;100.00;97065.38;3828672;76;391871;-76
2021/01/23 18:02:03;;;;;;;1.67;1.53;;;;;;;2.48;100.00;97052.80;3927890;75;394032;-77
2021/01/23 18:07:25;;;;;;;2.30;2.10;;;;;;;2.37;100.00;97051.30;3828757;76;383784;-77
2021/01/23 18:12:47;;;;;;;1.20;1.03;;;;;;;2.31;100.00;97048.79;3932150;74;383809;-77
2021/01/23 18:18:08;;;;;;;7.33;2.43;;;;;;;2.27;100.00;97050.76;3933498;74;396344;-77
2021/01/23 18:23:29;;;;;;;5.73;2.60;;;;;;;2.30;100.00;97047.83;3933349;74;396086;-77
2021/01/23 18:28:50;;;;;;;2.93;2.13;;;;;;;2.30;100.00;97031.56;3933439;74;396143;-77
2021/01/23 18:34:12;;;;;;;6.37;1.87;;;;;;;2.27;100.00;97026.34;3933842;73;396099;-78
2021/01/23 18:39:33;;;;;;;1.87;1.60;;;;;;;2.20;100.00;97022.88;3933622;74;396025;-77
2021/01/23 18:44:54;;;;;;;3.10;1.40;;;;;;;2.13;100.00;97016.14;3933965;73;394284;-78
2021/01/23 18:50:15;;;;;;;4.50;2.23;;;;;;;2.06;100.00;97018.88;3933656;74;396025;-77
2021/01/23 18:55:37;;;;;;;1.77;1.63;;;;;;;1.98;100.00;97014.65;3933633;73;396054;-78
2021/01/23 19:00:58;;;;;;;1.30;1.20;;;;;;;1.84;100.00;97024.20;3933943;74;391903;-77
2021/01/23 19:06:20;;;;;;;5.10;3.40;;;;;;;1.80;100.00;97022.06;3933361;74;396151;-78
2021/01/23 19:11:41;;;;;;;3.17;2.90;;;;;;;1.73;100.00;97013.95;3942453;74;396037;-78
2021/01/23 19:17:03;;;;;;;4.83;2.83;;;;;;;1.63;100.00;97013.39;3947136;73;396302;-77
2021/01/23 19:22:24;;;;;;;3.30;2.70;;;;;;;1.56;100.00;96999.88;3947323;74;395247;-77
2021/01/23 19:27:45;;;;;;;2.90;2.40;;;;;;;1.52;100.00;96983.43;3947397;74;396130;-78
2021/01/23 19:33:06;;;;;;;3.37;1.77;;;;;;;1.42;100.00;96985.01;3947601;73;391911;-78
2021/01/23 19:38:29;;;;;;;2.50;1.73;;;;;;;1.31;100.00;96978.83;3947426;74;396288;-78
2021/01/23 19:43:50;;;;;;;3.03;2.33;;;;;;;1.34;100.00;96989.45;3947118;74;396335;-78
2021/01/23 19:49:11;;;;;;;3.70;3.20;;;;;;;1.61;100.00;96992.13;3946876;74;396361;-78
2021/01/23 19:54:32;;;;;;;2.40;2.10;;;;;;;1.63;100.00;96990.36;3946913;74;396139;-78
2021/01/23 19:59:54;;;;;;;16.90;4.80;;;;;;;1.56;100.00;96997.16;3947257;74;395049;-77
2021/01/23 20:05:17;;;;;;;3.63;2.10;;;;;;;1.54;100.00;96996.77;3947032;73;396395;-77
2021/01/23 20:10:39;;;;;;;2.27;2.07;;;;;;;1.57;100.00;96985.92;3942757;74;396113;-77
2021/01/23 20:16:00;;;;;;;1.40;1.20;;;;;;;1.55;100.00;96979.36;3933761;73;391930;-77
2021/01/23 20:21:21;;;;;;;4.43;3.00;;;;;;;1.53;100.00;96978.20;3933253;74;396155;-78
2021/01/23 20:26:44;;;;;;;2.80;2.00;;;;;;;1.56;100.00;96979.55;3933119;74;396327;-77
2021/01/23 20:32:05;;;;;;;3.13;2.27;;;;;;;1.59;100.00;96983.60;3933413;74;396113;-78
2021/01/23 20:37:27;;;;;;;4.20;2.60;;;;;;;1.67;100.00;96978.35;3933696;74;392894;-77
2021/01/23 20:42:48;;;;;;;2.00;1.90;;;;;;;1.72;100.00;96971.76;3933921;74;385668;-77
2021/01/23 20:48:09;;;;;;;4.70;2.33;;;;;;;1.76;100.00;96973.30;3933481;74;396332;-78
2021/01/23 20:53:30;;;;;;;10.10;3.90;;;;;;;1.79;100.00;96963.59;3933802;74;396125;-77
2021/01/23 20:58:51;;;;;;;4.40;3.23;;;;;;;1.76;100.00;96960.34;3933441;73;389088;-77
2021/01/23 21:04:12;;;;;;;1.97;1.77;;;;;;;1.76;100.00;96946.79;3933545;74;395457;-77
2021/01/23 21:09:34;;;;;;;3.50;3.17;;;;;;;1.80;100.00;96959.16;3933213;74;396293;-77
2021/01/23 21:14:55;;;;;;;2.93;2.40;;;;;;;1.85;100.00;96953.92;3933391;73;396112;-77
2021/01/23 21:20:16;;;;;;;2.27;2.10;;;;;;;1.82;100.00;96953.34;3933402;74;393961;-77
2021/01/23 21:25:37;;;;;;;2.60;2.40;;;;;;;1.79;100.00;96943.27;3933347;73;396136;-77
2021/01/23 21:30:58;;;;;;;5.80;3.77;;;;;;;1.79;100.00;96933.79;3933716;74;392131;-77
2021/01/23 21:36:20;;;;;;;4.10;2.63;;;;;;;1.79;100.00;96929.16;3933299;73;395090;-77
2021/01/23 21:41:41;;;;;;;5.23;1.60;;;;;;;1.78;100.00;96922.75;3933358;73;393520;-77
2021/01/23 21:47:03;;;;;;;2.17;2.00;;;;;;;1.80;100.00;96917.72;3933901;73;396115;-78
2021/01/23 21:52:24;;;;;;;4.73;2.53;;;;;;;1.80;100.00;96919.86;3933497;74;396147;-78
2021/01/23 21:57:45;;;;;;;4.10;2.90;;;;;;;1.83;100.00;96921.01;3933440;74;396135;-77
2021/01/23 22:03:07;;;;;;;7.03;3.10;;;;;;;1.87;100.00;96914.41;3933700;74;396131;-77
2021/01/23 22:08:28;;;;;;;8.47;3.83;;;;;;;1.83;100.00;96912.88;3934592;74;388789;-78
2021/01/23 22:13:50;;;;;;;2.27;2.07;;;;;;;1.78;100.00;96911.34;3943457;73;394016;-77
2021/01/23 22:19:11;;;;;;;3.03;2.30;;;;;;;1.78;100.00;96911.91;3947086;74;396089;-77
2021/01/23 22:24:32;;;;;;;20.33;5.70;;;;;;;1.79;100.00;96906.13;3790465;77;394185;-77
2021/01/23 22:29:53;;;;;;;3.03;2.03;;;;;;;1.82;100.00;96897.78;3804235;77;391906;-77
2021/01/23 22:35:15;;;;;;;3.00;2.80;;;;;;;1.87;100.00;96897.36;3803247;77;396073;-78
2021/01/23 22:40:36;;;;;;;3.40;3.10;;;;;;;1.84;100.00;96884.02;3802766;77;396130;-78
2021/01/23 22:45:57;;;;;;;13.33;2.90;;;;;;;1.80;100.00;96879.78;3803070;77;389788;-77
2021/01/23 22:51:19;;;;;;;3.97;3.67;;;;;;;1.77;100.00;96867.80;3802649;77;396362;-78
2021/01/23 22:56:40;;;;;;;6.87;3.13;;;;;;;1.74;100.00;96858.33;3802579;77;396035;-78
2021/01/23 23:02:01;;;;;;;3.30;1.63;;;;;;;1.73;100.00;96860.84;3803291;77;385623;-78
2021/01/23 23:07:22;;;;;;;3.53;2.53;;;;;;;1.73;100.00;96850.02;3802870;77;396158;-77
2021/01/23 23:12:45;;;;;;;8.50;2.97;;;;;;;1.70;100.00;96852.14;3819305;76;396099;-77
2021/01/23 23:18:08;;;;;;;5.00;1.93;;;;;;;1.71;100.00;96848.27;3847175;76;394003;-77
2021/01/23 23:23:29;;;;;;;2.00;1.90;;;;;;;1.71;100.00;96847.70;3846670;76;396367;-78
2021/01/23 23:28:50;;;;;;;5.57;5.17;;;;;;;1.74;100.00;96842.08;3848978;76;396339;-78
2021/01/23 23:34:12;;;;;;;2.37;1.83;;;;;;;1.71;100.00;96833.38;3846820;76;396138;-79
2021/01/23 23:39:33;;;;;;;6.37;5.50;;;;;;;1.67;100.00;96829.33;3846945;76;396332;-79
2021/01/23 23:44:54;;;;;;;4.80;3.10;;;;;;;1.68;100.00;96817.92;3848556;76;396075;-79
2021/01/23 23:50:16;;;;;;;5.77;2.40;;;;;;;1.66;100.00;96828.38;3846718;76;395030;-80
2021/01/23 23:55:38;;;;;;;7.50;5.00;;;;;;;1.68;100.00;96824.09;3847535;76;396275;-81
